createdAt,value
2022-10-25T00:04:31.150Z,3.15
2022-10-25T00:09:34.977Z,3.55
2022-10-25T00:14:37.331Z,2.50
2022-10-25T00:19:39.995Z,1.60
2022-10-25T00:24:44.138Z,2.73
2022-10-25T00:29:47.141Z,1.83
2022-10-25T00:34:49.700Z,2.22
2022-10-25T00:39:53.494Z,2.58
2022-10-25T00:44:56.702Z,2.28
2022-10-25T00:50:01.988Z,3.77
2022-10-25T00:55:07.344Z,1.30
2022-10-25T01:00:11.018Z,1.75
2022-10-25T01:05:13.764Z,3.20
2022-10-25T01:10:17.750Z,1.58
2022-10-25T01:20:37.888Z,2.67
2022-10-25T01:25:48.912Z,0.57
2022-10-25T01:31:08.541Z,2.53
2022-10-25T01:36:15.365Z,2.58
2022-10-25T01:41:28.590Z,2.92
2022-10-25T01:46:33.763Z,0.65
2022-10-25T01:51:38.524Z,2.85
2022-10-25T01:56:44.371Z,5.45
2022-10-25T02:01:53.014Z,0.60
2022-10-25T02:06:59.145Z,3.22
2022-10-25T02:12:01.767Z,2.78
2022-10-25T02:17:06.009Z,1.10
2022-10-25T02:22:11.150Z,1.17
2022-10-25T02:27:14.789Z,1.80
2022-10-25T02:32:18.297Z,0.25
2022-10-25T02:37:22.211Z,1.33
2022-10-25T02:47:27.500Z,1.30
2022-10-25T02:52:32.275Z,1.27
2022-10-25T02:57:35.678Z,3.85
2022-10-25T03:02:38.267Z,0.50
2022-10-25T03:07:42.706Z,1.50
2022-10-25T03:12:45.471Z,1.45
2022-10-25T03:17:48.801Z,1.38
2022-10-25T03:22:52.776Z,2.72
2022-10-25T03:27:55.428Z,0.57
2022-10-25T03:32:58.236Z,0.77
2022-10-25T03:38:02.218Z,1.58
2022-10-25T03:48:07.569Z,0.93
2022-10-25T03:53:12.000Z,0.65
2022-10-25T03:58:14.563Z,2.03
2022-10-25T04:03:17.159Z,3.13
2022-10-25T04:08:21.117Z,1.85
2022-10-25T04:18:25.870Z,2.53
2022-10-25T04:23:31.292Z,0.32
2022-10-25T04:28:34.025Z,1.35
2022-10-25T04:33:36.650Z,1.15
2022-10-25T04:38:40.511Z,0.77
2022-10-25T04:48:45.470Z,1.40
2022-10-25T04:53:49.323Z,2.40
2022-10-25T04:58:51.909Z,0.60
2022-10-25T05:03:54.309Z,1.90
2022-10-25T05:08:58.507Z,1.58
2022-10-25T05:14:01.171Z,0.50
2022-10-25T05:19:03.552Z,1.63
2022-10-25T05:24:07.741Z,1.73
2022-10-25T05:29:11.966Z,1.17
2022-10-25T05:34:14.500Z,2.53
2022-10-25T05:39:18.305Z,3.22
2022-10-25T05:44:21.615Z,1.17
2022-10-25T05:49:24.126Z,0.47
2022-10-25T05:54:28.023Z,3.00
2022-10-25T06:04:32.837Z,3.42
2022-10-25T06:09:36.754Z,3.22
2022-10-25T06:19:41.491Z,2.47
2022-10-25T06:24:47.960Z,0.55
2022-10-25T06:34:52.889Z,0.63
2022-10-25T06:39:56.738Z,3.22
2022-10-25T06:50:01.735Z,3.50
2022-10-25T06:55:06.107Z,1.42
2022-10-25T07:00:09.349Z,1.20
2022-10-25T07:05:11.854Z,3.08
2022-10-25T07:10:15.917Z,2.27
2022-10-25T07:20:22.029Z,4.57
2022-10-25T07:25:25.850Z,5.53
2022-10-25T07:30:28.278Z,4.20
2022-10-25T07:40:39.478Z,2.67
2022-10-25T07:45:41.955Z,3.10
2022-10-25T07:50:44.814Z,2.08
2022-10-25T07:55:52.742Z,2.53
2022-10-25T08:01:00.710Z,8.95
2022-10-25T08:06:04.408Z,5.35
2022-10-25T08:11:08.565Z,3.50
2022-10-25T08:16:11.020Z,2.15
2022-10-25T08:21:13.550Z,5.27
2022-10-25T08:26:17.772Z,1.35
2022-10-25T08:31:20.229Z,5.85
2022-10-25T08:36:24.120Z,1.48
2022-10-25T08:41:34.772Z,3.30
2022-10-25T08:46:39.704Z,2.47
2022-10-25T08:51:44.360Z,3.45
2022-10-25T08:57:03.469Z,1.90
2022-10-25T09:02:15.902Z,2.97
2022-10-25T09:07:33.241Z,3.75
2022-10-25T09:12:40.486Z,4.70
2022-10-25T09:17:45.475Z,1.40
2022-10-25T09:22:48.586Z,3.63
2022-10-25T09:27:56.187Z,2.10
2022-10-25T09:33:01.329Z,4.80
2022-10-25T09:38:09.713Z,2.47
2022-10-25T09:43:17.382Z,4.55
2022-10-25T09:48:23.706Z,1.90
2022-10-25T09:53:26.365Z,2.67
2022-10-25T09:58:31.511Z,2.42
2022-10-25T10:03:35.453Z,1.48
2022-10-25T10:08:38.181Z,2.55
2022-10-25T10:13:43.997Z,2.08
2022-10-25T10:18:46.475Z,2.28
2022-10-25T10:23:52.193Z,2.75
2022-10-25T10:29:06.564Z,3.90
2022-10-25T10:34:23.961Z,1.85
2022-10-25T10:39:27.055Z,2.97
2022-10-25T10:44:34.392Z,2.22
2022-10-25T10:49:38.280Z,2.10
2022-10-25T10:54:50.714Z,3.78
2022-10-25T10:59:56.393Z,3.33
2022-10-25T11:04:59.088Z,2.20
2022-10-25T11:10:26.079Z,1.60
2022-10-25T11:15:33.708Z,3.80
2022-10-25T11:20:41.354Z,4.25
2022-10-25T11:25:46.977Z,1.65
2022-10-25T11:30:55.468Z,3.72
2022-10-25T11:36:03.685Z,2.63
2022-10-25T11:41:10.508Z,2.28
2022-10-25T11:46:17.009Z,2.97
2022-10-25T11:51:28.493Z,3.38
2022-10-25T11:56:33.980Z,2.20
2022-10-25T12:01:45.114Z,4.00
2022-10-25T12:06:56.604Z,0.93
2022-10-25T12:12:01.570Z,4.30
2022-10-25T12:17:07.243Z,3.28
2022-10-25T12:22:14.629Z,1.67
2022-10-25T12:27:18.604Z,2.97
2022-10-25T12:32:26.294Z,4.40
2022-10-25T12:37:35.867Z,3.20
2022-10-25T12:42:41.600Z,3.70
2022-10-25T12:47:53.940Z,3.03
2022-10-25T12:53:09.344Z,1.40
2022-10-25T12:58:21.128Z,2.08
2022-10-25T13:03:48.536Z,2.15
2022-10-25T13:08:52.008Z,1.52
2022-10-25T13:13:54.835Z,2.22
2022-10-25T13:19:35.917Z,2.65
2022-10-25T13:24:45.056Z,1.75
2022-10-25T13:35:45.063Z,3.20
2022-10-25T13:41:05.633Z,2.67
2022-10-25T13:46:11.329Z,1.70
2022-10-25T13:51:16.766Z,1.48
2022-10-25T13:56:33.770Z,2.45
2022-10-25T14:01:56.890Z,3.20
2022-10-25T14:07:26.998Z,1.98
2022-10-25T14:12:31.758Z,4.28
2022-10-25T14:17:36.783Z,3.35
2022-10-25T14:22:41.194Z,1.77
2022-10-25T14:27:45.387Z,1.45
2022-10-25T14:32:55.915Z,3.25
2022-10-25T14:37:58.871Z,3.70
2022-10-25T14:43:19.836Z,1.98
2022-10-25T14:48:22.417Z,3.47
2022-10-25T14:53:26.266Z,1.70
2022-10-25T14:58:32.057Z,2.47
2022-10-25T15:03:40.848Z,2.20
2022-10-25T15:08:49.207Z,2.30
2022-10-25T15:13:55.448Z,2.90
2022-10-25T15:19:05.844Z,4.63
2022-10-25T15:24:09.444Z,2.35
2022-10-25T15:29:13.316Z,1.25
2022-10-25T15:34:21.260Z,3.58
2022-10-25T15:39:26.667Z,5.72
2022-10-25T15:44:30.680Z,4.53
2022-10-25T15:49:34.869Z,5.65
2022-10-25T15:54:37.406Z,3.33
2022-10-25T15:59:41.329Z,4.27
2022-10-25T16:04:44.385Z,4.07
2022-10-25T16:09:47.028Z,2.80
2022-10-25T16:14:52.838Z,3.45
2022-10-25T16:19:55.686Z,2.90
2022-10-25T16:24:58.160Z,4.13
2022-10-25T16:30:06.308Z,6.85
2022-10-25T16:35:09.506Z,5.07
2022-10-25T16:40:15.254Z,5.72
2022-10-25T16:45:22.435Z,3.67
2022-10-25T16:50:27.494Z,3.17
2022-10-25T16:55:30.834Z,7.55
2022-10-25T17:00:36.056Z,2.75
2022-10-25T17:05:39.812Z,5.28
2022-10-25T17:10:45.200Z,6.80
2022-10-25T17:15:51.852Z,8.20
2022-10-25T17:20:54.301Z,7.60
2022-10-25T17:25:57.845Z,6.13
2022-10-25T17:31:01.808Z,6.03
2022-10-25T17:36:08.486Z,5.75
2022-10-25T17:41:11.474Z,4.90
2022-10-25T17:46:17.827Z,8.30
2022-10-25T17:51:20.359Z,7.93
2022-10-25T17:56:23.628Z,6.63
2022-10-25T18:01:31.322Z,6.88
2022-10-25T18:06:34.072Z,10.57
2022-10-25T18:11:37.884Z,6.30
2022-10-25T18:16:42.366Z,6.72
2022-10-25T18:21:45.071Z,7.53
2022-10-25T18:26:47.718Z,8.05
2022-10-25T18:31:52.186Z,9.47
2022-10-25T18:36:54.777Z,9.55
2022-10-25T18:41:58.069Z,11.98
2022-10-25T18:47:01.914Z,9.65
2022-10-25T18:57:06.903Z,9.80
2022-10-25T19:02:11.736Z,7.90
2022-10-25T19:07:14.565Z,8.90
2022-10-25T19:12:17.198Z,8.98
2022-10-25T19:17:21.228Z,14.68
2022-10-25T19:22:23.983Z,10.45
2022-10-25T19:27:29.238Z,8.90
2022-10-25T19:32:33.848Z,5.25
2022-10-25T19:37:39.377Z,7.05
2022-10-25T19:42:42.339Z,9.73
2022-10-25T19:47:47.501Z,7.67
2022-10-25T19:52:51.005Z,4.18
2022-10-25T19:58:03.935Z,6.67
2022-10-25T20:03:07.798Z,12.13
2022-10-25T20:08:10.373Z,2.72
2022-10-25T20:13:15.625Z,6.50
2022-10-25T20:18:20.802Z,5.50
2022-10-25T20:23:23.558Z,4.65
2022-10-25T20:28:26.226Z,3.95
2022-10-25T20:33:30.309Z,5.95
2022-10-25T20:43:35.178Z,8.18
2022-10-25T20:48:39.337Z,2.72
2022-10-25T20:53:43.294Z,4.05
2022-10-25T20:58:46.746Z,3.80
2022-10-25T21:03:50.890Z,6.67
2022-10-25T21:08:53.370Z,4.45
2022-10-25T21:13:55.863Z,3.47
2022-10-25T21:19:02.993Z,5.00
2022-10-25T21:24:05.865Z,3.90
2022-10-25T21:29:08.378Z,7.65
2022-10-25T21:34:15.668Z,3.05
2022-10-25T21:39:23.350Z,7.10
2022-10-25T21:44:25.821Z,2.15
2022-10-25T21:49:29.692Z,6.95
2022-10-25T21:54:32.572Z,5.10
2022-10-25T21:59:35.032Z,2.28
2022-10-25T22:04:39.903Z,3.63
2022-10-25T22:09:42.785Z,3.85
2022-10-25T22:14:45.434Z,3.55
2022-10-25T22:19:49.350Z,4.82
2022-10-25T22:24:52.208Z,4.45
2022-10-25T22:29:54.796Z,6.03
2022-10-25T22:34:58.580Z,3.55
2022-10-25T22:40:01.100Z,2.97
2022-10-25T22:45:03.687Z,3.45
2022-10-25T22:50:08.220Z,7.57
2022-10-25T22:55:10.916Z,5.93
2022-10-25T23:00:13.925Z,3.90
2022-10-25T23:05:27.657Z,3.33
2022-10-25T23:10:37.337Z,6.22
2022-10-25T23:15:39.757Z,5.50
2022-10-25T23:20:50.488Z,7.10
2022-10-25T23:25:53.076Z,7.00
2022-10-25T23:31:04.271Z,4.50
2022-10-25T23:36:10.160Z,4.55
2022-10-25T23:41:13.060Z,5.63
2022-10-25T23:46:16.008Z,3.50
2022-10-25T23:51:20.497Z,3.97
2022-10-25T23:56:23.090Z,3.55
